Terminal Aerodrome Forecast
Issued by NWS Paducah, KY

Home | Current Version | Previous Version | Graphics & Text | Print | Product List | Glossary On
Versions: 1 2 3 4 5 6 7 8 9 10 11 12 13 14 15 16 17 18 19 20 21
000
FTUS43 KPAH 280520
TAFPAH
TAF
KPAH 280520Z 2806/2906 18008KT P6SM BKN100
     FM281100 18009KT P6SM VCTS SCT015CB OVC050
     FM281900 19010G17KT P6SM VCTS OVC020CB
     FM290000 17006KT P6SM SCT025 BKN050=

USA.gov is the U.S. government's official web portal to all federal, state and local government web resources and services.